createdAt,value
2023-11-18T00:01:00.222Z,99172.31
2023-11-18T00:03:27.025Z,99180.03
2023-11-18T00:05:53.813Z,99172.94
2023-11-18T00:08:21.030Z,99170.31
2023-11-18T00:10:48.716Z,99175.19
2023-11-18T00:13:15.612Z,99177.91
2023-11-18T00:15:43.960Z,99175.97
2023-11-18T00:18:10.696Z,99181.91
2023-11-18T00:20:37.364Z,99179.25
2023-11-18T00:23:06.093Z,99179.19
2023-11-18T00:25:35.237Z,99181.69
2023-11-18T00:28:01.964Z,99177.19
2023-11-18T00:30:29.504Z,99177.94
2023-11-18T00:32:56.407Z,99190.03
2023-11-18T00:35:23.165Z,99189.94
2023-11-18T00:37:49.973Z,99184.59
2023-11-18T00:40:19.313Z,99190.56
2023-11-18T00:42:49.088Z,99182.69
2023-11-18T00:45:15.843Z,99188.91
2023-11-18T00:47:42.625Z,99189.78
2023-11-18T00:50:10.029Z,99191.38
2023-11-18T00:52:39.895Z,99194.84
2023-11-18T00:55:08.546Z,99195.59
2023-11-18T00:57:35.339Z,99196.38
2023-11-18T01:00:02.278Z,99203.31
2023-11-18T01:02:29.076Z,99212.66
2023-11-18T01:04:56.686Z,99209.09
2023-11-18T01:07:23.280Z,99216.00
2023-11-18T01:09:51.290Z,99215.06
2023-11-18T01:12:17.975Z,99217.03
2023-11-18T01:14:44.643Z,99219.34
2023-11-18T01:17:11.322Z,99220.09
2023-11-18T01:19:38.278Z,99223.56
2023-11-18T01:22:07.232Z,99216.72
2023-11-18T01:24:34.867Z,99227.09
2023-11-18T01:27:02.384Z,99224.53
2023-11-18T01:29:29.112Z,99222.84
2023-11-18T01:31:57.543Z,99230.50
2023-11-18T01:34:24.508Z,99224.53
2023-11-18T01:36:51.825Z,99234.13
2023-11-18T01:39:19.403Z,99234.19
2023-11-18T01:41:47.052Z,99225.69
2023-11-18T01:44:16.730Z,99230.06
2023-11-18T01:46:47.152Z,99234.38
2023-11-18T01:49:15.566Z,99235.25
2023-11-18T01:51:45.139Z,99229.34
2023-11-18T01:54:16.713Z,99234.56
2023-11-18T01:56:47.397Z,99226.91
2023-11-18T01:59:19.530Z,99234.00
2023-11-18T02:01:52.773Z,99225.47
2023-11-18T02:04:21.483Z,99230.59
2023-11-18T02:06:53.227Z,99229.56
2023-11-18T02:09:29.044Z,99224.31
2023-11-18T02:12:05.633Z,99233.03
2023-11-18T02:14:34.552Z,99232.06
2023-11-18T02:17:04.715Z,99227.00
2023-11-18T02:19:32.627Z,99219.91
2023-11-18T02:22:01.462Z,99227.59
2023-11-18T02:24:30.806Z,99229.28
2023-11-18T02:27:02.020Z,99235.28
2023-11-18T02:29:33.919Z,99244.88
2023-11-18T02:32:11.761Z,99235.41
2023-11-18T02:34:44.207Z,99236.16
2023-11-18T02:37:13.210Z,99243.19
2023-11-18T02:39:52.123Z,99234.50
2023-11-18T02:42:19.372Z,99236.06
2023-11-18T02:44:46.909Z,99234.25
2023-11-18T02:47:13.588Z,99236.88
2023-11-18T02:49:40.976Z,99236.69
2023-11-18T02:52:08.460Z,99240.91
2023-11-18T02:54:35.225Z,99255.38
2023-11-18T02:57:02.420Z,99249.28
2023-11-18T02:59:31.642Z,99256.84
2023-11-18T03:01:59.499Z,99260.38
2023-11-18T03:04:26.234Z,99268.91
2023-11-18T03:06:52.959Z,99267.00
2023-11-18T03:09:20.086Z,99271.25
2023-11-18T03:11:46.976Z,99268.06
2023-11-18T03:14:13.881Z,99265.63
2023-11-18T03:16:40.834Z,99268.41
2023-11-18T03:19:10.188Z,99265.91
2023-11-18T03:21:37.530Z,99278.06
2023-11-18T03:24:04.444Z,99273.88
2023-11-18T03:26:33.119Z,99278.31
2023-11-18T03:29:00.093Z,99283.59
2023-11-18T03:31:27.487Z,99274.16
2023-11-18T03:33:54.269Z,99268.19
2023-11-18T03:36:20.955Z,99273.47
2023-11-18T03:38:48.862Z,99273.47
2023-11-18T03:41:16.645Z,99279.59
2023-11-18T03:43:43.325Z,99277.84
2023-11-18T03:46:12.107Z,99276.97
2023-11-18T03:48:38.811Z,99276.13
2023-11-18T03:51:05.752Z,99274.47
2023-11-18T03:53:35.040Z,99275.50
2023-11-18T03:56:03.512Z,99280.69
2023-11-18T03:58:30.496Z,99283.31
2023-11-18T04:00:58.643Z,99278.13
2023-11-18T04:03:25.328Z,99272.97
2023-11-18T04:05:51.933Z,99272.91
2023-11-18T04:08:18.718Z,99276.38
2023-11-18T04:10:45.405Z,99272.03
2023-11-18T04:13:12.202Z,99275.53
2023-11-18T04:15:38.823Z,99276.41
2023-11-18T04:18:05.873Z,99272.06
2023-11-18T04:20:32.541Z,99272.97
2023-11-18T04:22:59.254Z,99275.41
2023-11-18T04:25:26.725Z,99271.13
2023-11-18T04:27:53.402Z,99272.72
2023-11-18T04:30:20.124Z,99272.59
2023-11-18T04:32:46.927Z,99272.59
2023-11-18T04:35:14.368Z,99276.03
2023-11-18T04:37:47.308Z,99274.22
2023-11-18T04:40:14.014Z,99275.88
2023-11-18T04:42:41.297Z,99270.72
2023-11-18T04:45:10.703Z,99274.22
2023-11-18T04:47:39.004Z,99280.22
2023-11-18T04:50:06.257Z,99272.34
2023-11-18T04:52:36.337Z,99279.13
2023-11-18T04:55:06.699Z,99268.56
2023-11-18T04:57:33.415Z,99267.66
2023-11-18T05:00:00.156Z,99259.75
2023-11-18T05:02:26.902Z,99254.56
2023-11-18T05:04:53.634Z,99251.00
2023-11-18T05:07:20.291Z,99242.06
2023-11-18T05:09:46.953Z,99255.78
2023-11-18T05:12:13.706Z,99255.56
2023-11-18T05:14:40.478Z,99250.94
2023-11-18T05:17:07.245Z,99245.56
2023-11-18T05:19:34.000Z,99251.44
2023-11-18T05:22:01.392Z,99252.28
2023-11-18T05:24:28.527Z,99243.47
2023-11-18T05:26:55.203Z,99242.53
2023-11-18T05:29:22.336Z,99233.88
2023-11-18T05:31:49.096Z,99233.78
2023-11-18T05:34:15.976Z,99243.06
2023-11-18T05:36:42.812Z,99248.25
2023-11-18T05:39:12.105Z,99252.53
2023-11-18T05:41:41.156Z,99252.19
2023-11-18T05:44:10.423Z,99265.31
2023-11-18T05:46:37.559Z,99266.22
2023-11-18T05:49:09.445Z,99261.09
2023-11-18T05:51:36.463Z,99264.69
2023-11-18T05:54:03.253Z,99260.44
2023-11-18T05:56:30.059Z,99256.97
2023-11-18T05:58:56.917Z,99254.47
2023-11-18T06:01:24.460Z,99254.69
2023-11-18T06:03:51.636Z,99255.38
2023-11-18T06:06:22.113Z,99260.53
2023-11-18T06:08:51.399Z,99260.69
2023-11-18T06:11:20.591Z,99257.31
2023-11-18T06:13:52.064Z,99266.16
2023-11-18T06:16:22.957Z,99265.44
2023-11-18T06:18:51.755Z,99262.09
2023-11-18T06:21:21.099Z,99275.19
2023-11-18T06:23:49.236Z,99277.06
2023-11-18T06:26:17.255Z,99279.75
2023-11-18T06:28:45.595Z,99280.69
2023-11-18T06:31:13.430Z,99281.50
2023-11-18T06:33:44.812Z,99277.78
2023-11-18T06:36:14.984Z,99280.25
2023-11-18T06:38:42.516Z,99274.28
2023-11-18T06:41:13.658Z,99276.78
2023-11-18T06:43:58.845Z,99284.50
2023-11-18T06:46:35.689Z,99279.41
2023-11-18T06:49:08.156Z,99275.91
2023-11-18T06:51:37.400Z,99286.91
2023-11-18T06:54:14.656Z,99286.84
2023-11-18T06:56:45.977Z,99294.41
2023-11-18T06:59:14.598Z,99288.25
2023-11-18T07:01:44.845Z,99297.63
2023-11-18T07:04:12.204Z,99306.94
2023-11-18T07:06:42.449Z,99293.97
2023-11-18T07:09:14.946Z,99300.81
2023-11-18T07:11:42.469Z,99299.00
2023-11-18T07:14:10.786Z,99304.25
2023-11-18T07:16:39.507Z,99302.56
2023-11-18T07:19:06.380Z,99306.94
2023-11-18T07:21:34.782Z,99307.09
2023-11-18T07:24:03.908Z,99302.88
2023-11-18T07:26:30.755Z,99305.50
2023-11-18T07:28:57.614Z,99316.91
2023-11-18T07:31:25.957Z,99313.66
2023-11-18T07:33:53.753Z,99313.59
2023-11-18T07:36:23.221Z,99322.28
2023-11-18T07:38:51.527Z,99325.72
2023-11-18T07:41:30.926Z,99330.88
2023-11-18T07:43:59.677Z,99331.84
2023-11-18T07:46:26.921Z,99331.31
2023-11-18T07:48:54.927Z,99331.53
2023-11-18T07:51:22.838Z,99330.00
2023-11-18T07:53:50.383Z,99343.00
2023-11-18T07:56:17.945Z,99335.38
2023-11-18T07:58:48.508Z,99341.69
2023-11-18T08:01:18.986Z,99326.31
2023-11-18T08:03:45.875Z,99326.66
2023-11-18T08:06:13.839Z,99331.47
2023-11-18T08:08:42.110Z,99319.72
2023-11-18T08:11:11.898Z,99318.50
2023-11-18T08:13:38.691Z,99316.25
2023-11-18T08:16:06.040Z,99307.22
2023-11-18T08:18:33.003Z,99309.53
2023-11-18T08:21:01.579Z,99297.03
2023-11-18T08:23:29.629Z,99306.06
2023-11-18T08:25:56.775Z,99292.28
2023-11-18T08:28:23.660Z,99292.38
2023-11-18T08:30:52.453Z,99290.69
2023-11-18T08:33:20.250Z,99310.78
2023-11-18T08:35:47.537Z,99300.47
2023-11-18T08:38:14.320Z,99304.03
2023-11-18T08:40:44.140Z,99308.44
2023-11-18T08:43:12.708Z,99313.78
2023-11-18T08:45:40.052Z,99310.34
2023-11-18T08:48:10.231Z,99306.94
2023-11-18T08:50:41.475Z,99313.03
2023-11-18T08:53:11.525Z,99310.53
2023-11-18T08:55:44.146Z,99305.34
2023-11-18T08:58:20.067Z,99307.16
2023-11-18T09:00:56.827Z,99302.88
2023-11-18T09:03:36.326Z,99312.47
2023-11-18T09:06:19.253Z,99313.38
2023-11-18T09:08:54.229Z,99309.91
2023-11-18T09:11:23.972Z,99306.44
2023-11-18T09:14:02.410Z,99311.69
2023-11-18T09:16:31.381Z,99331.72
2023-11-18T09:19:00.901Z,99322.97
2023-11-18T09:21:31.205Z,99316.88
2023-11-18T09:23:58.393Z,99317.84
2023-11-18T09:26:27.457Z,99315.38
2023-11-18T09:28:54.466Z,99314.56
2023-11-18T09:31:23.011Z,99304.97
2023-11-18T09:33:59.060Z,99304.97
2023-11-18T09:36:25.844Z,99298.88
2023-11-18T09:38:53.897Z,99305.84
2023-11-18T09:44:18.595Z,99297.97
2023-11-18T09:46:57.373Z,99295.38
2023-11-18T09:49:35.362Z,99290.03
2023-11-18T09:52:06.391Z,99293.53
2023-11-18T09:54:53.672Z,99292.56
2023-11-18T09:57:38.565Z,99289.13
2023-11-18T10:00:29.761Z,99287.38
2023-11-18T10:03:02.079Z,99280.53
2023-11-18T10:05:31.537Z,99280.50
2023-11-18T10:08:01.217Z,99269.09
2023-11-18T10:10:32.161Z,99265.53
2023-11-18T10:13:05.306Z,99274.25
2023-11-18T10:15:33.599Z,99271.69
2023-11-18T10:18:01.718Z,99269.94
2023-11-18T10:20:41.252Z,99268.22
2023-11-18T10:23:12.551Z,99267.34
2023-11-18T10:25:58.437Z,99268.22
2023-11-18T10:28:29.928Z,99262.13
2023-11-18T10:31:07.181Z,99254.22
2023-11-18T10:33:38.529Z,99265.56
2023-11-18T10:36:07.898Z,99259.47
2023-11-18T10:38:44.543Z,99264.72
2023-11-18T10:41:13.266Z,99263.00
2023-11-18T10:43:43.128Z,99252.53
2023-11-18T10:46:17.437Z,99257.81
2023-11-18T10:48:51.678Z,99249.09
2023-11-18T10:51:27.931Z,99252.53
2023-11-18T10:53:59.943Z,99253.41
2023-11-18T10:56:30.519Z,99243.84
2023-11-18T10:58:59.702Z,99237.75
2023-11-18T11:01:34.606Z,99233.38
2023-11-18T11:04:06.030Z,99236.88
2023-11-18T11:06:34.108Z,99236.00
2023-11-18T11:09:01.286Z,99229.91
2023-11-18T11:11:40.657Z,99231.59
2023-11-18T11:14:10.165Z,99214.97
2023-11-18T11:16:46.026Z,99216.69
2023-11-18T11:19:27.590Z,99225.41
2023-11-18T11:22:07.480Z,99206.19
2023-11-18T11:25:10.206Z,99213.19
2023-11-18T11:27:53.261Z,99209.69
2023-11-18T11:30:23.999Z,99203.53
2023-11-18T11:33:00.485Z,99211.41
2023-11-18T11:35:39.066Z,99208.69
2023-11-18T11:38:10.919Z,99207.00
2023-11-18T11:40:39.250Z,99188.59
2023-11-18T11:43:10.992Z,99183.34
2023-11-18T11:45:40.323Z,99172.91
2023-11-18T11:48:21.014Z,99167.69
2023-11-18T11:51:21.735Z,99159.81
2023-11-18T11:53:59.598Z,99166.84
2023-11-18T11:57:02.732Z,99156.34
2023-11-18T11:59:56.348Z,99147.69
2023-11-18T12:02:30.803Z,99141.63
2023-11-18T12:05:00.436Z,99144.28
2023-11-18T12:07:33.159Z,99142.56
2023-11-18T12:10:01.855Z,99139.06
2023-11-18T12:12:28.948Z,99133.84
2023-11-18T12:14:58.556Z,99128.63
2023-11-18T12:17:30.120Z,99113.75
2023-11-18T12:20:10.101Z,99115.47
2023-11-18T12:23:06.859Z,99112.84
2023-11-18T12:25:34.166Z,99105.81
2023-11-18T12:28:09.023Z,99089.31
2023-11-18T12:30:38.045Z,99081.50
2023-11-18T12:33:19.613Z,99084.97
2023-11-18T12:35:52.781Z,99082.31
2023-11-18T12:38:47.580Z,99088.47
2023-11-18T12:41:28.887Z,99098.09
2023-11-18T12:44:20.658Z,99114.66
2023-11-18T12:47:15.496Z,99118.13
2023-11-18T12:49:42.890Z,99115.53
2023-11-18T12:52:11.317Z,99092.81
2023-11-18T12:54:39.248Z,99090.19
2023-11-18T12:57:08.383Z,99102.38
2023-11-18T12:59:35.750Z,99086.63
2023-11-18T13:02:05.558Z,99093.59
2023-11-18T13:04:32.553Z,99097.00
2023-11-18T13:07:01.353Z,99100.59
2023-11-18T13:09:33.601Z,99095.44
2023-11-18T13:12:05.629Z,99109.41
2023-11-18T13:14:40.768Z,99107.75
2023-11-18T13:17:14.807Z,99106.03
2023-11-18T13:19:41.740Z,99091.19
2023-11-18T13:22:12.098Z,99088.69
2023-11-18T13:24:46.333Z,99093.03
2023-11-18T13:27:20.970Z,99090.38
2023-11-18T13:29:53.947Z,99100.88
2023-11-18T13:32:27.180Z,99098.28
2023-11-18T13:34:54.237Z,99092.19
2023-11-18T13:37:24.265Z,99086.97
2023-11-18T13:40:01.359Z,99086.09
2023-11-18T13:42:32.495Z,99081.72
2023-11-18T13:45:09.531Z,99079.13
2023-11-18T13:47:36.770Z,99076.50
2023-11-18T13:50:08.599Z,99069.56
2023-11-18T13:52:36.355Z,99067.84
2023-11-18T13:55:06.841Z,99068.69
2023-11-18T13:57:33.874Z,99057.34
2023-11-18T14:00:00.674Z,99053.88
2023-11-18T14:02:29.771Z,99054.75
2023-11-18T14:04:57.165Z,99057.38
2023-11-18T14:07:24.637Z,99053.91
2023-11-18T14:09:53.284Z,99052.16
2023-11-18T14:12:20.591Z,99046.94
2023-11-18T14:14:47.353Z,99046.94
2023-11-18T14:17:14.066Z,99039.94
2023-11-18T14:19:42.913Z,99025.13
2023-11-18T14:22:10.786Z,99027.78
2023-11-18T14:24:37.712Z,99021.66
2023-11-18T14:27:05.945Z,99009.47
2023-11-18T14:29:32.728Z,99015.56
2023-11-18T14:31:59.869Z,99011.19
2023-11-18T14:34:27.096Z,99005.13
2023-11-18T14:36:53.877Z,98999.88
2023-11-18T14:39:24.236Z,98991.16
2023-11-18T14:41:51.854Z,98989.44
2023-11-18T14:44:19.287Z,98983.31
2023-11-18T14:46:46.950Z,98987.66
2023-11-18T14:49:13.868Z,98988.53
2023-11-18T14:51:41.598Z,98983.28
2023-11-18T14:54:10.170Z,98982.44
2023-11-18T14:56:37.004Z,98983.31
2023-11-18T14:59:06.451Z,98987.63
2023-11-18T15:01:33.648Z,98977.13
2023-11-18T15:04:00.688Z,98971.97
2023-11-18T15:06:28.794Z,98971.09
2023-11-18T15:08:58.584Z,98968.47
2023-11-18T15:11:26.050Z,98963.19
2023-11-18T15:13:57.641Z,98957.94
2023-11-18T15:16:24.679Z,98957.09
2023-11-18T15:18:54.043Z,98948.38
2023-11-18T15:21:21.011Z,98944.03
2023-11-18T15:23:49.648Z,98938.78
2023-11-18T15:26:16.648Z,98939.66
2023-11-18T15:28:43.557Z,98943.09
2023-11-18T15:31:10.179Z,98940.50
2023-11-18T15:33:36.837Z,98936.97
2023-11-18T15:36:03.893Z,98941.28
2023-11-18T15:38:30.744Z,98930.00
2023-11-18T15:40:57.498Z,98921.34
2023-11-18T15:43:24.258Z,98926.47
2023-11-18T15:45:50.983Z,98923.00
2023-11-18T15:48:17.773Z,98916.06
2023-11-18T15:50:44.581Z,98909.16
2023-11-18T15:53:15.767Z,98909.09
2023-11-18T15:55:45.193Z,98910.84
2023-11-18T15:58:11.852Z,98909.06
2023-11-18T16:00:39.195Z,98908.22
2023-11-18T16:03:10.268Z,98916.88
2023-11-18T16:05:37.399Z,98914.31
2023-11-18T16:08:05.775Z,98909.91
2023-11-18T16:10:33.336Z,98910.75
2023-11-18T16:13:01.771Z,98909.84
2023-11-18T16:15:33.170Z,98912.47
2023-11-18T16:18:01.853Z,98895.06
2023-11-18T16:20:34.899Z,98894.22
2023-11-18T16:23:06.252Z,98900.31
2023-11-18T16:25:35.883Z,98905.47
2023-11-18T16:28:04.065Z,98909.00
2023-11-18T16:30:32.212Z,98906.38
2023-11-18T16:33:00.487Z,98905.50
2023-11-18T16:35:27.915Z,98903.78
2023-11-18T16:37:56.242Z,98902.00
2023-11-18T16:40:25.426Z,98915.88
2023-11-18T16:42:56.587Z,98915.88
2023-11-18T16:45:25.154Z,98910.63
2023-11-18T16:47:54.180Z,98900.22
2023-11-18T16:50:24.022Z,98892.31
2023-11-18T16:52:51.632Z,98902.69
2023-11-18T16:55:18.270Z,98899.22
2023-11-18T16:57:44.979Z,98904.44
2023-11-18T17:00:27.161Z,98900.13
2023-11-18T17:02:57.858Z,98883.72
2023-11-18T17:05:31.550Z,98886.34
2023-11-18T17:07:59.334Z,98901.94
2023-11-18T17:10:25.941Z,98905.38
2023-11-18T17:12:53.066Z,98897.63
2023-11-18T17:15:20.088Z,98897.56
2023-11-18T17:17:48.778Z,98893.22
2023-11-18T17:20:16.790Z,98892.31
2023-11-18T17:22:44.379Z,98890.63
2023-11-18T17:25:16.506Z,98889.75
2023-11-18T17:27:45.628Z,98885.47
2023-11-18T17:30:14.296Z,98886.31
2023-11-18T17:32:42.063Z,98881.13
2023-11-18T17:35:16.607Z,98880.28
2023-11-18T17:37:44.834Z,98872.47
2023-11-18T17:40:13.539Z,98855.06
2023-11-18T17:42:41.621Z,98867.22
2023-11-18T17:45:09.404Z,98869.00
2023-11-18T17:47:37.732Z,98843.81
2023-11-18T17:50:13.093Z,98830.81
2023-11-18T17:52:43.073Z,98818.66
2023-11-18T17:55:09.909Z,98817.78
2023-11-18T17:57:37.253Z,98812.59
2023-11-18T18:00:10.067Z,98805.63
2023-11-18T18:02:38.074Z,98808.25
2023-11-18T18:05:05.728Z,98807.41
2023-11-18T18:07:32.734Z,98806.56
2023-11-18T18:09:59.464Z,98798.72
2023-11-18T18:12:28.322Z,98789.16
2023-11-18T18:14:56.009Z,98792.66
2023-11-18T18:17:22.900Z,98775.28
2023-11-18T18:19:49.622Z,98790.91
2023-11-18T18:22:16.378Z,98787.44
2023-11-18T18:24:43.234Z,98782.22
2023-11-18T18:27:09.996Z,98780.50
2023-11-18T18:29:36.761Z,98770.06
2023-11-18T18:32:03.819Z,98777.91
2023-11-18T18:34:31.639Z,98764.88
2023-11-18T18:37:00.146Z,98757.94
2023-11-18T18:39:30.143Z,98738.84
2023-11-18T18:41:57.317Z,98736.22
2023-11-18T18:44:26.866Z,98726.66
2023-11-18T18:46:55.666Z,98721.44
2023-11-18T18:49:22.317Z,98698.88
2023-11-18T18:51:49.905Z,98697.13
2023-11-18T18:54:16.593Z,98687.59
2023-11-18T18:56:43.397Z,98671.09
2023-11-18T18:59:12.475Z,98678.03
2023-11-18T19:01:40.738Z,98684.13
2023-11-18T19:04:09.510Z,98674.59
2023-11-18T19:06:37.416Z,98671.13
2023-11-18T19:09:05.430Z,98657.22
2023-11-18T19:11:32.600Z,98652.00
2023-11-18T19:13:59.907Z,98639.84
2023-11-18T19:16:27.693Z,98644.19
2023-11-18T19:18:57.825Z,98632.91
2023-11-18T19:21:30.525Z,98625.09
2023-11-18T19:23:58.108Z,98619.00
2023-11-18T19:26:24.980Z,98640.69
2023-11-18T19:28:51.772Z,98634.63
2023-11-18T19:31:18.699Z,98625.94
2023-11-18T19:33:45.696Z,98611.19
2023-11-18T19:36:13.286Z,98596.41
2023-11-18T19:38:40.548Z,98585.13
2023-11-18T19:41:07.741Z,98566.88
2023-11-18T19:43:37.613Z,98572.97
2023-11-18T19:46:04.521Z,98580.78
2023-11-18T19:48:32.937Z,98572.13
2023-11-18T19:51:00.726Z,98561.69
2023-11-18T19:53:27.512Z,98566.91
2023-11-18T19:55:54.391Z,98565.19
2023-11-18T19:58:23.414Z,98556.50
2023-11-18T20:00:54.271Z,98566.91
2023-11-18T20:03:23.738Z,98547.81
2023-11-18T20:05:51.063Z,98540.84
2023-11-18T20:08:20.698Z,98532.19
2023-11-18T20:10:48.643Z,98532.19
2023-11-18T20:13:16.393Z,98535.66
2023-11-18T20:15:43.380Z,98539.13
2023-11-18T20:18:13.091Z,98535.66
2023-11-18T20:20:40.241Z,98534.78
2023-11-18T20:23:07.169Z,98531.31
2023-11-18T20:25:35.217Z,98530.47
2023-11-18T20:28:02.069Z,98523.50
2023-11-18T20:30:28.907Z,98525.25
2023-11-18T20:32:57.442Z,98526.97
2023-11-18T20:35:25.621Z,98511.34
2023-11-18T20:37:53.188Z,98500.06
2023-11-18T20:40:22.613Z,98480.13
2023-11-18T20:42:50.492Z,98465.34
2023-11-18T20:45:19.604Z,98470.56
2023-11-18T20:47:48.236Z,98467.06
2023-11-18T20:50:16.402Z,98473.19
2023-11-18T20:52:43.566Z,98480.09
2023-11-18T20:55:14.482Z,98474.88
2023-11-18T20:57:41.127Z,98480.13
2023-11-18T21:00:09.355Z,98474.06
2023-11-18T21:02:37.009Z,98463.63
2023-11-18T21:05:06.728Z,98457.53
2023-11-18T21:07:33.933Z,98458.41
2023-11-18T21:10:00.720Z,98456.66
2023-11-18T21:12:27.360Z,98440.19
2023-11-18T21:14:54.079Z,98419.34
2023-11-18T21:17:26.422Z,98426.28
2023-11-18T21:19:57.516Z,98424.53
2023-11-18T21:22:24.798Z,98401.13
2023-11-18T21:24:51.965Z,98391.59
2023-11-18T21:27:18.832Z,98391.59
2023-11-18T21:29:47.447Z,98381.19
2023-11-18T21:32:14.153Z,98366.47
2023-11-18T21:34:44.190Z,98368.19
2023-11-18T21:37:12.127Z,98368.19
2023-11-18T21:39:42.621Z,98364.72
2023-11-18T21:42:09.747Z,98345.63
2023-11-18T21:44:37.073Z,98343.91
2023-11-18T21:47:04.640Z,98342.16
2023-11-18T21:49:32.989Z,98338.69
2023-11-18T21:51:59.935Z,98326.53
2023-11-18T21:54:27.343Z,98319.59
2023-11-18T21:56:54.037Z,98315.25
2023-11-18T21:59:20.766Z,98303.09
2023-11-18T22:01:47.396Z,98289.19
2023-11-18T22:04:14.316Z,98299.63
2023-11-18T22:06:40.989Z,98290.94
2023-11-18T22:09:07.733Z,98289.16
2023-11-18T22:14:04.725Z,98277.03
2023-11-18T22:16:31.465Z,98256.16
2023-11-18T22:18:59.028Z,98252.69
2023-11-18T22:21:28.377Z,98237.03
2023-11-18T22:23:55.177Z,98237.03
2023-11-18T22:26:23.345Z,98219.66
2023-11-18T22:28:50.397Z,98224.00
2023-11-18T22:31:17.854Z,98223.09
2023-11-18T22:33:44.566Z,98184.84
2023-11-18T22:36:11.264Z,98199.59
2023-11-18T22:38:39.462Z,98199.53
2023-11-18T22:41:08.815Z,98188.25
2023-11-18T22:43:35.666Z,98184.72
2023-11-18T22:46:02.834Z,98182.09
2023-11-18T22:48:29.741Z,98182.94
2023-11-18T22:50:56.356Z,98185.50
2023-11-18T22:53:23.238Z,98169.00
2023-11-18T22:55:52.196Z,98183.81
2023-11-18T22:58:19.114Z,98175.06
2023-11-18T23:00:52.769Z,98167.22
2023-11-18T23:06:20.944Z,98143.72
2023-11-18T23:08:51.815Z,98142.88
2023-11-18T23:11:19.254Z,98135.00
2023-11-18T23:13:47.947Z,98131.50
2023-11-18T23:16:14.605Z,98141.06
2023-11-18T23:18:42.622Z,98137.56
2023-11-18T23:21:11.095Z,98144.50
2023-11-18T23:23:38.333Z,98128.81
2023-11-18T23:26:09.323Z,98127.88
2023-11-18T23:28:37.238Z,98116.53
2023-11-18T23:31:06.082Z,98111.22
2023-11-18T23:33:32.947Z,98106.03
2023-11-18T23:35:59.513Z,98109.47
2023-11-18T23:38:27.486Z,98105.94
2023-11-18T23:40:54.370Z,98081.63
2023-11-18T23:43:21.890Z,98074.66
2023-11-18T23:45:49.903Z,98085.91
2023-11-18T23:48:16.982Z,98075.38
2023-11-18T23:50:43.719Z,98065.81
2023-11-18T23:53:10.462Z,98071.06
2023-11-18T23:55:37.128Z,98073.59
2023-11-18T23:58:04.078Z,98070.03
